createdAt,value
2019-01-22T00:00:21.813Z,-5.74
2019-01-22T00:02:52.998Z,-5.73
2019-01-22T00:05:23.826Z,-5.79
2019-01-22T00:07:54.654Z,-5.77
2019-01-22T00:10:25.482Z,-5.79
2019-01-22T00:12:56.413Z,-5.75
2019-01-22T00:15:27.470Z,-5.80
2019-01-22T00:17:58.228Z,-5.86
2019-01-22T00:20:29.043Z,-5.88
2019-01-22T00:23:02.914Z,-5.96
2019-01-22T00:25:32.425Z,-5.99
2019-01-22T00:28:03.257Z,-6.00
2019-01-22T00:30:34.141Z,-5.99
2019-01-22T00:33:05.472Z,-5.94
2019-01-22T00:35:36.361Z,-6.00
2019-01-22T00:38:07.265Z,-6.05
2019-01-22T00:40:38.042Z,-6.10
2019-01-22T00:43:08.765Z,-6.16
2019-01-22T00:45:39.525Z,-6.11
2019-01-22T00:48:10.333Z,-6.08
2019-01-22T00:50:41.442Z,-6.14
2019-01-22T00:53:12.248Z,-6.22
2019-01-22T00:55:43.117Z,-6.28
2019-01-22T00:58:14.045Z,-6.30
2019-01-22T01:00:44.838Z,-6.34
2019-01-22T01:03:16.029Z,-6.33
2019-01-22T01:05:46.797Z,-6.37
2019-01-22T01:08:17.608Z,-6.34
2019-01-22T01:10:48.364Z,-6.33
2019-01-22T01:13:19.168Z,-6.29
2019-01-22T01:15:50.120Z,-6.33
2019-01-22T01:18:20.944Z,-6.35
2019-01-22T01:20:51.699Z,-6.38
2019-01-22T01:23:22.506Z,-6.35
2019-01-22T01:25:53.263Z,-6.45
2019-01-22T01:28:24.069Z,-6.49
2019-01-22T01:30:54.901Z,-6.52
2019-01-22T01:33:25.751Z,-6.48
2019-01-22T01:35:56.644Z,-6.52
2019-01-22T01:38:27.430Z,-6.51
2019-01-22T01:40:58.246Z,-6.52
2019-01-22T01:43:29.096Z,-6.38
2019-01-22T01:45:59.895Z,-6.40
2019-01-22T01:48:30.676Z,-6.28
2019-01-22T01:51:01.577Z,-6.37
2019-01-22T01:53:32.329Z,-6.41
2019-01-22T01:56:03.144Z,-6.45
2019-01-22T01:58:34.027Z,-6.43
2019-01-22T02:01:04.933Z,-6.47
2019-01-22T02:03:35.809Z,-6.44
2019-01-22T02:06:06.697Z,-6.41
2019-01-22T02:08:37.494Z,-6.42
2019-01-22T02:11:24.949Z,-6.22
2019-01-22T02:14:01.569Z,-6.26
2019-01-22T02:17:23.687Z,-6.26
2019-01-22T02:20:49.309Z,-6.23
2019-01-22T02:24:55.881Z,-6.21
2019-01-22T02:28:54.649Z,-6.17
2019-01-22T02:32:15.077Z,-6.26
2019-01-22T02:35:29.725Z,-6.37
2019-01-22T02:38:59.554Z,-6.42
2019-01-22T02:41:50.247Z,-6.36
2019-01-22T02:45:34.619Z,-6.40
2019-01-22T02:48:53.264Z,-6.42
2019-01-22T02:52:22.338Z,-6.44
2019-01-22T02:55:19.364Z,-6.30
2019-01-22T02:58:50.303Z,-6.26
2019-01-22T03:02:35.683Z,-6.27
2019-01-22T03:05:52.173Z,-6.33
2019-01-22T03:09:07.436Z,-6.21
2019-01-22T03:12:31.624Z,-6.31
2019-01-22T03:16:15.992Z,-6.38
2019-01-22T03:19:39.401Z,-6.45
2019-01-22T03:23:07.508Z,-6.44
2019-01-22T03:26:07.858Z,-6.51
2019-01-22T03:29:41.702Z,-6.57
2019-01-22T03:32:57.974Z,-6.66
2019-01-22T03:37:09.044Z,-6.76
2019-01-22T03:40:41.152Z,-6.82
2019-01-22T03:44:25.216Z,-6.78
2019-01-22T03:47:46.614Z,-6.73
2019-01-22T03:50:50.901Z,-6.68
2019-01-22T03:54:42.126Z,-6.70
2019-01-22T03:58:00.321Z,-6.68
2019-01-22T04:01:40.881Z,-6.62
2019-01-22T04:04:14.490Z,-6.52
2019-01-22T04:06:54.524Z,-6.54
2019-01-22T04:09:38.267Z,-6.60
2019-01-22T04:12:13.072Z,-6.68
2019-01-22T04:14:43.967Z,-6.69
2019-01-22T04:17:15.194Z,-6.73
2019-01-22T04:19:46.104Z,-6.74
2019-01-22T04:22:41.783Z,-6.68
2019-01-22T04:25:49.689Z,-6.62
2019-01-22T04:29:33.514Z,-6.64
2019-01-22T04:32:45.185Z,-6.69
2019-01-22T04:36:14.399Z,-6.77
2019-01-22T04:39:48.839Z,-6.82
2019-01-22T04:43:29.896Z,-6.85
2019-01-22T04:46:52.652Z,-6.83
2019-01-22T04:50:25.583Z,-6.83
2019-01-22T04:54:10.620Z,-6.80
2019-01-22T04:57:37.535Z,-6.86
2019-01-22T05:01:15.540Z,-6.93
2019-01-22T05:04:35.887Z,-6.97
2019-01-22T05:07:49.710Z,-6.99
2019-01-22T05:11:29.590Z,-6.94
2019-01-22T05:14:52.652Z,-6.95
2019-01-22T05:18:15.792Z,-6.96
2019-01-22T05:21:51.087Z,-6.88
2019-01-22T05:25:48.785Z,-6.94
2019-01-22T05:29:14.002Z,-6.98
2019-01-22T05:32:41.237Z,-6.97
2019-01-22T05:36:03.107Z,-6.95
2019-01-22T05:39:15.367Z,-6.93
2019-01-22T05:42:49.664Z,-6.93
2019-01-22T05:45:59.690Z,-6.91
2019-01-22T05:49:24.495Z,-6.87
2019-01-22T05:52:17.335Z,-6.76
2019-01-22T05:55:15.881Z,-6.73
2019-01-22T05:58:52.608Z,-6.73
2019-01-22T06:01:32.147Z,-6.69
2019-01-22T06:04:55.772Z,-6.63
2019-01-22T06:08:30.380Z,-6.63
2019-01-22T06:12:12.235Z,-6.78
2019-01-22T06:15:01.574Z,-6.81
2019-01-22T06:18:21.646Z,-6.83
2019-01-22T06:22:01.723Z,-6.83
2019-01-22T06:25:22.822Z,-6.86
2019-01-22T06:28:37.084Z,-6.93
2019-01-22T06:31:52.379Z,-6.95
2019-01-22T06:35:19.735Z,-6.96
2019-01-22T06:38:45.763Z,-6.93
2019-01-22T06:42:10.545Z,-6.94
2019-01-22T06:45:45.479Z,-6.94
2019-01-22T06:49:27.018Z,-6.86
2019-01-22T06:52:48.910Z,-6.80
2019-01-22T06:55:50.227Z,-6.57
2019-01-22T06:59:20.945Z,-6.60
2019-01-22T07:02:16.843Z,-6.60
2019-01-22T07:05:42.516Z,-6.56
2019-01-22T07:09:19.655Z,-6.53
2019-01-22T07:13:01.920Z,-6.54
2019-01-22T07:16:55.367Z,-6.38
2019-01-22T07:20:42.147Z,-6.34
2019-01-22T07:23:55.623Z,-6.26
2019-01-22T07:27:26.008Z,-6.13
2019-01-22T07:30:52.431Z,-6.17
2019-01-22T07:34:10.114Z,-6.12
2019-01-22T07:37:21.542Z,-6.08
2019-01-22T07:40:46.513Z,-5.95
2019-01-22T07:43:45.032Z,-5.89
2019-01-22T07:47:12.548Z,-5.68
2019-01-22T07:50:28.791Z,-5.61
2019-01-22T07:53:31.069Z,-5.56
2019-01-22T07:56:54.249Z,-5.49
2019-01-22T08:00:26.846Z,-5.44
2019-01-22T08:04:16.091Z,-5.38
2019-01-22T08:07:24.386Z,-5.29
2019-01-22T08:10:49.190Z,-5.18
2019-01-22T08:14:18.657Z,-5.12
2019-01-22T08:17:45.460Z,-4.99
2019-01-22T08:21:19.497Z,-4.88
2019-01-22T08:24:36.943Z,-4.79
2019-01-22T08:27:50.371Z,-4.66
2019-01-22T08:31:31.320Z,-4.55
2019-01-22T08:35:01.446Z,-4.46
2019-01-22T08:38:29.494Z,-4.41
2019-01-22T08:41:51.868Z,-4.33
2019-01-22T08:45:11.704Z,-4.21
2019-01-22T08:48:42.284Z,-4.15
2019-01-22T08:52:11.362Z,-4.05
2019-01-22T08:55:46.996Z,-4.01
2019-01-22T08:58:54.796Z,-3.97
2019-01-22T09:02:24.774Z,-3.86
2019-01-22T09:05:46.958Z,-3.81
2019-01-22T09:09:01.369Z,-3.71
2019-01-22T09:12:52.954Z,-3.86
2019-01-22T09:16:37.733Z,-3.82
2019-01-22T09:20:16.532Z,-3.67
2019-01-22T09:23:54.449Z,-3.43
2019-01-22T09:27:16.546Z,-3.32
2019-01-22T09:30:35.832Z,-3.16
2019-01-22T09:34:08.133Z,-3.03
2019-01-22T09:37:11.430Z,-2.98
2019-01-22T09:39:42.375Z,-2.93
2019-01-22T09:42:13.234Z,-2.84
2019-01-22T09:44:44.025Z,-2.77
2019-01-22T09:47:14.822Z,-2.69
2019-01-22T09:49:45.605Z,-2.62
2019-01-22T09:52:16.458Z,-2.55
2019-01-22T09:54:47.261Z,-2.55
2019-01-22T09:57:18.093Z,-2.56
2019-01-22T09:59:49.011Z,-2.49
2019-01-22T10:02:19.847Z,-2.38
2019-01-22T10:04:50.825Z,-2.30
2019-01-22T10:07:24.089Z,-2.21
2019-01-22T10:09:57.746Z,-2.15
2019-01-22T10:12:28.577Z,-2.07
2019-01-22T10:14:59.515Z,-2.11
2019-01-22T10:17:30.291Z,-2.14
2019-01-22T10:20:01.146Z,-2.16
2019-01-22T10:22:32.125Z,-2.11
2019-01-22T10:25:02.947Z,-2.07
2019-01-22T10:27:33.789Z,-2.05
2019-01-22T10:30:05.681Z,-2.05
2019-01-22T10:32:36.446Z,-1.98
2019-01-22T10:35:07.837Z,-1.94
2019-01-22T10:37:38.639Z,-1.86
2019-01-22T10:40:14.952Z,-1.68
2019-01-22T10:42:45.965Z,-1.54
2019-01-22T10:45:18.738Z,-1.51
2019-01-22T10:47:49.800Z,-1.49
2019-01-22T10:50:24.053Z,-1.57
2019-01-22T10:52:54.914Z,-1.53
2019-01-22T10:55:25.755Z,-1.47
2019-01-22T10:57:56.527Z,-1.41
2019-01-22T11:00:32.207Z,-1.34
2019-01-22T11:03:03.069Z,-1.30
2019-01-22T11:05:45.221Z,-1.29
2019-01-22T11:08:18.600Z,-1.27
2019-01-22T11:10:49.465Z,-1.23
2019-01-22T11:13:20.358Z,-1.25
2019-01-22T11:15:53.393Z,-1.28
2019-01-22T11:18:24.274Z,-1.29
2019-01-22T11:21:03.264Z,-1.26
2019-01-22T11:23:34.120Z,-1.13
2019-01-22T11:26:09.679Z,-1.13
2019-01-22T11:28:43.505Z,-1.10
2019-01-22T11:31:16.467Z,-1.11
2019-01-22T11:33:49.783Z,-1.12
2019-01-22T11:36:20.613Z,-1.08
2019-01-22T11:38:51.600Z,-1.12
2019-01-22T11:41:22.436Z,-1.12
2019-01-22T11:43:53.181Z,-1.06
2019-01-22T11:46:24.028Z,-1.01
2019-01-22T11:48:54.853Z,-0.93
2019-01-22T11:51:25.611Z,-0.90
2019-01-22T11:53:57.112Z,-0.92
2019-01-22T11:56:27.940Z,-0.87
2019-01-22T11:59:01.704Z,-0.83
2019-01-22T12:01:32.629Z,-0.81
2019-01-22T12:04:05.339Z,-0.81
2019-01-22T12:06:36.227Z,-0.80
2019-01-22T12:09:10.216Z,-0.79
2019-01-22T12:11:41.082Z,-0.73
2019-01-22T12:14:11.888Z,-0.64
2019-01-22T12:16:42.676Z,-0.64
2019-01-22T12:19:13.428Z,-0.69
2019-01-22T12:21:44.356Z,-0.62
2019-01-22T12:24:15.246Z,-0.65
2019-01-22T12:26:46.111Z,-0.65
2019-01-22T12:29:20.180Z,-0.59
2019-01-22T12:31:54.199Z,-0.52
2019-01-22T12:34:25.112Z,-0.54
2019-01-22T12:36:56.112Z,-0.60
2019-01-22T12:39:27.049Z,-0.62
2019-01-22T12:41:57.996Z,-0.56
2019-01-22T12:44:28.924Z,-0.61
2019-01-22T12:46:59.874Z,-0.65
2019-01-22T12:49:30.702Z,-0.63
2019-01-22T12:52:01.576Z,-0.63
2019-01-22T12:54:32.416Z,-0.62
2019-01-22T12:57:03.448Z,-0.52
2019-01-22T12:59:34.365Z,-0.53
2019-01-22T13:02:05.337Z,-0.50
2019-01-22T13:04:36.142Z,-0.59
2019-01-22T13:07:07.045Z,-0.64
2019-01-22T13:09:37.867Z,-0.53
2019-01-22T13:12:08.762Z,-0.50
2019-01-22T13:14:39.631Z,-0.57
2019-01-22T13:17:10.387Z,-0.60
2019-01-22T13:19:41.168Z,-0.63
2019-01-22T13:22:11.948Z,-0.64
2019-01-22T13:24:42.711Z,-0.60
2019-01-22T13:27:13.572Z,-0.56
2019-01-22T13:29:44.376Z,-0.44
2019-01-22T13:32:15.208Z,-0.47
2019-01-22T13:34:45.966Z,-0.48
2019-01-22T13:37:16.759Z,-0.52
2019-01-22T13:39:47.566Z,-0.47
2019-01-22T13:42:18.329Z,-0.42
2019-01-22T13:44:49.159Z,-0.34
2019-01-22T13:47:19.945Z,-0.42
2019-01-22T13:49:50.691Z,-0.40
2019-01-22T13:52:21.483Z,-0.28
2019-01-22T13:54:52.335Z,-0.33
2019-01-22T13:57:23.091Z,-0.37
2019-01-22T13:59:53.937Z,-0.38
2019-01-22T14:02:24.713Z,-0.40
2019-01-22T14:04:55.574Z,-0.41
2019-01-22T14:07:26.435Z,-0.44
2019-01-22T14:09:57.237Z,-0.46
2019-01-22T14:12:28.146Z,-0.52
2019-01-22T14:14:59.052Z,-0.56
2019-01-22T14:17:29.871Z,-0.58
2019-01-22T14:20:00.684Z,-0.49
2019-01-22T14:22:31.454Z,-0.57
2019-01-22T14:25:02.301Z,-0.50
2019-01-22T14:27:33.079Z,-0.54
2019-01-22T14:30:03.979Z,-0.51
2019-01-22T14:32:34.830Z,-0.48
2019-01-22T14:35:06.635Z,-0.43
2019-01-22T14:37:37.819Z,-0.59
2019-01-22T14:40:11.444Z,-0.70
2019-01-22T14:42:42.303Z,-0.64
2019-01-22T14:45:14.991Z,-0.70
2019-01-22T14:47:45.895Z,-0.88
2019-01-22T14:50:25.906Z,-0.85
2019-01-22T14:52:57.113Z,-0.88
2019-01-22T14:55:28.256Z,-0.94
2019-01-22T14:57:59.166Z,-1.01
2019-01-22T15:00:30.944Z,-1.05
2019-01-22T15:03:03.719Z,-1.04
2019-01-22T15:05:37.481Z,-0.98
2019-01-22T15:08:08.394Z,-1.09
2019-01-22T15:10:39.265Z,-1.29
2019-01-22T15:13:10.072Z,-1.45
2019-01-22T15:15:53.435Z,-1.57
2019-01-22T15:19:01.465Z,-1.58
2019-01-22T15:21:32.289Z,-1.58
2019-01-22T15:24:03.078Z,-1.73
2019-01-22T15:26:39.371Z,-1.59
2019-01-22T15:29:06.534Z,-1.55
2019-01-22T15:31:37.398Z,-1.66
2019-01-22T15:34:08.254Z,-1.75
2019-01-22T15:36:39.187Z,-1.87
2019-01-22T15:39:11.024Z,-1.97
2019-01-22T15:41:41.947Z,-2.11
2019-01-22T15:44:21.588Z,-2.05
2019-01-22T15:46:52.566Z,-2.00
2019-01-22T15:49:23.426Z,-2.12
2019-01-22T15:51:54.619Z,-2.21
2019-01-22T15:54:25.910Z,-2.20
2019-01-22T15:56:56.858Z,-2.16
2019-01-22T15:59:27.726Z,-2.28
2019-01-22T16:01:58.950Z,-2.33
2019-01-22T16:04:29.771Z,-2.29
2019-01-22T16:07:00.610Z,-2.40
2019-01-22T16:09:31.438Z,-2.40
2019-01-22T16:12:04.342Z,-2.44
2019-01-22T16:14:35.270Z,-2.40
2019-01-22T16:17:06.227Z,-2.37
2019-01-22T16:19:37.106Z,-2.42
2019-01-22T16:22:08.008Z,-2.45
2019-01-22T16:24:40.154Z,-2.42
2019-01-22T16:27:11.226Z,-2.45
2019-01-22T16:29:42.117Z,-2.53
2019-01-22T16:32:13.079Z,-2.54
2019-01-22T16:34:43.980Z,-2.56
2019-01-22T16:37:15.202Z,-2.47
2019-01-22T16:39:46.314Z,-2.44
2019-01-22T16:42:17.146Z,-2.53
2019-01-22T16:44:47.976Z,-2.67
2019-01-22T16:47:18.802Z,-2.72
2019-01-22T16:49:49.584Z,-2.73
2019-01-22T16:52:20.978Z,-2.76
2019-01-22T16:54:52.541Z,-2.69
2019-01-22T16:57:23.518Z,-2.64
2019-01-22T16:59:54.414Z,-2.73
2019-01-22T17:02:25.268Z,-2.81
2019-01-22T17:04:56.409Z,-2.91
2019-01-22T17:07:27.421Z,-2.91
2019-01-22T17:09:58.380Z,-3.00
2019-01-22T17:12:29.269Z,-3.06
2019-01-22T17:15:00.145Z,-3.04
2019-01-22T17:17:31.381Z,-3.07
2019-01-22T17:20:02.604Z,-2.99
2019-01-22T17:22:33.794Z,-3.85
2019-01-22T17:25:08.143Z,-2.92
2019-01-22T17:27:39.051Z,-3.04
2019-01-22T17:30:15.095Z,-3.14
2019-01-22T17:33:03.910Z,-2.99
2019-01-22T17:35:36.641Z,-2.90
2019-01-22T17:38:07.612Z,-2.86
2019-01-22T17:40:38.705Z,-3.00
2019-01-22T17:43:09.661Z,-2.98
2019-01-22T17:45:40.670Z,-3.11
2019-01-22T17:48:11.801Z,-3.25
2019-01-22T17:50:42.713Z,-3.34
2019-01-22T17:53:23.090Z,-3.27
2019-01-22T17:55:58.261Z,-3.34
2019-01-22T17:58:31.252Z,-3.37
2019-01-22T18:01:06.343Z,-3.23
2019-01-22T18:03:39.549Z,-3.17
2019-01-22T18:06:12.757Z,-3.15
2019-01-22T18:08:43.673Z,-3.12
2019-01-22T18:11:14.897Z,-3.08
2019-01-22T18:13:46.177Z,-3.10
2019-01-22T18:16:17.255Z,-3.20
2019-01-22T18:19:00.525Z,-3.25
2019-01-22T18:21:34.670Z,-3.40
2019-01-22T18:24:22.355Z,-3.51
2019-01-22T18:26:54.455Z,-3.44
2019-01-22T18:29:25.449Z,-3.50
2019-01-22T18:31:56.445Z,-3.52
2019-01-22T18:34:27.323Z,-3.45
2019-01-22T18:36:58.267Z,-3.46
2019-01-22T18:39:29.207Z,-3.48
2019-01-22T18:42:00.093Z,-3.40
2019-01-22T18:44:30.984Z,-3.38
2019-01-22T18:47:01.781Z,-3.47
2019-01-22T18:49:32.698Z,-3.45
2019-01-22T18:52:03.472Z,-3.47
2019-01-22T18:54:34.328Z,-3.57
2019-01-22T18:57:05.245Z,-3.62
2019-01-22T18:59:36.121Z,-3.48
2019-01-22T19:02:07.284Z,-3.51
2019-01-22T19:04:38.274Z,-3.61
2019-01-22T19:07:09.425Z,-3.72
2019-01-22T19:10:03.770Z,-3.75
2019-01-22T19:12:23.999Z,-3.77
2019-01-22T19:14:59.351Z,-3.68
2019-01-22T19:17:30.075Z,-3.72
2019-01-22T19:20:03.749Z,-3.75
2019-01-22T19:22:34.686Z,-3.82
2019-01-22T19:25:09.452Z,-3.86
2019-01-22T19:27:43.017Z,-3.92
2019-01-22T19:30:17.971Z,-3.97
2019-01-22T19:32:49.856Z,-4.05
2019-01-22T19:35:20.854Z,-4.07
2019-01-22T19:37:51.971Z,-3.93
2019-01-22T19:40:23.260Z,-3.97
2019-01-22T19:42:54.315Z,-4.11
2019-01-22T19:45:35.076Z,-4.01
2019-01-22T19:48:08.207Z,-4.09
2019-01-22T19:50:39.403Z,-4.05
2019-01-22T19:53:10.504Z,-4.05
2019-01-22T19:55:41.673Z,-4.17
2019-01-22T19:58:12.756Z,-4.24
2019-01-22T20:00:45.474Z,-4.39
2019-01-22T20:03:16.659Z,-4.47
2019-01-22T20:05:47.967Z,-4.51
2019-01-22T20:08:19.085Z,-4.52
2019-01-22T20:10:53.311Z,-4.48
2019-01-22T20:13:24.637Z,-4.52
2019-01-22T20:15:55.647Z,-4.60
2019-01-22T20:18:26.740Z,-4.69
2019-01-22T20:20:57.608Z,-4.75
2019-01-22T20:23:28.890Z,-4.81
2019-01-22T20:25:59.878Z,-4.83
2019-01-22T20:28:30.924Z,-4.82
2019-01-22T20:31:01.961Z,-4.84
2019-01-22T20:33:32.987Z,-4.95
2019-01-22T20:36:04.008Z,-4.98
2019-01-22T20:38:34.998Z,-5.00
2019-01-22T20:41:06.180Z,-4.99
2019-01-22T20:43:37.104Z,-5.09
2019-01-22T20:46:07.932Z,-5.12
2019-01-22T20:48:38.828Z,-5.18
2019-01-22T20:51:09.653Z,-5.23
2019-01-22T20:53:40.522Z,-5.23
2019-01-22T20:56:11.408Z,-5.23
2019-01-22T20:58:42.213Z,-5.35
2019-01-22T21:01:13.192Z,-5.47
2019-01-22T21:03:44.144Z,-5.51
2019-01-22T21:06:16.304Z,-5.56
2019-01-22T21:08:47.155Z,-5.68
2019-01-22T21:11:19.019Z,-5.63
2019-01-22T21:13:49.898Z,-5.61
2019-01-22T21:16:20.670Z,-5.56
2019-01-22T21:18:51.558Z,-5.50
2019-01-22T21:21:22.408Z,-5.54
2019-01-22T21:23:53.294Z,-5.47
2019-01-22T21:26:24.160Z,-5.55
2019-01-22T21:28:55.050Z,-5.62
2019-01-22T21:31:29.002Z,-5.62
2019-01-22T21:33:59.978Z,-5.53
2019-01-22T21:36:30.898Z,-5.64
2019-01-22T21:39:01.716Z,-5.62
2019-01-22T21:41:32.663Z,-5.65
2019-01-22T21:44:03.503Z,-5.71
2019-01-22T21:46:34.601Z,-5.67
2019-01-22T21:49:05.426Z,-5.71
2019-01-22T21:51:36.337Z,-5.70
2019-01-22T21:54:07.244Z,-5.71
2019-01-22T21:56:38.243Z,-5.56
2019-01-22T21:59:09.017Z,-5.53
2019-01-22T22:01:40.002Z,-5.58
2019-01-22T22:04:10.854Z,-5.70
2019-01-22T22:06:41.745Z,-5.45
2019-01-22T22:09:12.677Z,-5.42
2019-01-22T22:11:43.463Z,-5.27
2019-01-22T22:14:14.340Z,-5.13
2019-01-22T22:16:45.211Z,-5.05
2019-01-22T22:19:16.057Z,-5.15
2019-01-22T22:21:46.879Z,-5.25
2019-01-22T22:24:17.703Z,-5.28
2019-01-22T22:26:48.495Z,-5.36
2019-01-22T22:29:19.369Z,-5.47
2019-01-22T22:31:50.335Z,-5.43
2019-01-22T22:34:21.222Z,-5.45
2019-01-22T22:36:52.111Z,-5.48
2019-01-22T22:39:22.944Z,-5.47
2019-01-22T22:41:53.783Z,-5.49
2019-01-22T22:44:24.715Z,-5.57
2019-01-22T22:46:55.521Z,-5.57
2019-01-22T22:49:26.275Z,-5.59
2019-01-22T22:51:57.169Z,-5.50
2019-01-22T22:54:27.942Z,-5.49
2019-01-22T22:56:58.701Z,-5.53
2019-01-22T22:59:29.519Z,-5.48
2019-01-22T23:02:00.458Z,-5.56
2019-01-22T23:04:31.266Z,-5.57
2019-01-22T23:07:02.096Z,-5.57
2019-01-22T23:09:32.947Z,-5.55
2019-01-22T23:12:03.939Z,-5.68
2019-01-22T23:14:34.756Z,-5.66
2019-01-22T23:17:05.542Z,-5.66
2019-01-22T23:19:36.509Z,-5.68
2019-01-22T23:22:07.373Z,-5.68
2019-01-22T23:24:38.201Z,-5.67
2019-01-22T23:27:08.944Z,-5.55
2019-01-22T23:29:39.783Z,-5.53
2019-01-22T23:32:10.574Z,-5.51
2019-01-22T23:34:41.475Z,-5.51
2019-01-22T23:37:12.355Z,-5.62
2019-01-22T23:39:43.122Z,-5.62
2019-01-22T23:42:13.919Z,-5.50
2019-01-22T23:44:44.755Z,-5.49
2019-01-22T23:47:15.620Z,-5.61
2019-01-22T23:49:46.422Z,-5.68
2019-01-22T23:52:17.195Z,-5.73
2019-01-22T23:54:48.061Z,-5.65
2019-01-22T23:57:18.878Z,-5.73
2019-01-22T23:59:49.666Z,-5.67
